sensor_id;sensor_type;location;lat;lon;timestamp;P1;durP1;ratioP1;P2;durP2;ratioP2
81908;SDS011;71372;43.514;1.512;2023-08-20T00:01:04;13.32;;;10.10;;
81908;SDS011;71372;43.514;1.512;2023-08-20T00:03:30;13.80;;;10.50;;
81908;SDS011;71372;43.514;1.512;2023-08-20T00:05:56;15.77;;;9.82;;
81908;SDS011;71372;43.514;1.512;2023-08-20T00:08:22;15.48;;;10.27;;
81908;SDS011;71372;43.514;1.512;2023-08-20T00:10:47;13.15;;;9.40;;
81908;SDS011;71372;43.514;1.512;2023-08-20T00:13:13;13.95;;;9.98;;
81908;SDS011;71372;43.514;1.512;2023-08-20T00:15:39;14.55;;;9.90;;
81908;SDS011;71372;43.514;1.512;2023-08-20T00:18:04;12.88;;;10.00;;
81908;SDS011;71372;43.514;1.512;2023-08-20T00:20:30;14.10;;;10.40;;
81908;SDS011;71372;43.514;1.512;2023-08-20T00:22:56;14.35;;;9.82;;
81908;SDS011;71372;43.514;1.512;2023-08-20T00:25:22;13.95;;;10.02;;
81908;SDS011;71372;43.514;1.512;2023-08-20T00:27:47;13.80;;;9.48;;
81908;SDS011;71372;43.514;1.512;2023-08-20T00:30:13;13.45;;;9.57;;
81908;SDS011;71372;43.514;1.512;2023-08-20T00:32:39;11.10;;;9.48;;
81908;SDS011;71372;43.514;1.512;2023-08-20T00:35:05;12.68;;;9.77;;
81908;SDS011;71372;43.514;1.512;2023-08-20T00:37:33;13.43;;;9.20;;
81908;SDS011;71372;43.514;1.512;2023-08-20T00:39:58;13.55;;;10.20;;
81908;SDS011;71372;43.514;1.512;2023-08-20T00:42:24;13.23;;;9.93;;
81908;SDS011;71372;43.514;1.512;2023-08-20T00:44:53;13.95;;;9.15;;
81908;SDS011;71372;43.514;1.512;2023-08-20T00:47:18;13.55;;;9.30;;
81908;SDS011;71372;43.514;1.512;2023-08-20T00:49:45;15.63;;;9.98;;
81908;SDS011;71372;43.514;1.512;2023-08-20T00:52:11;14.27;;;9.80;;
81908;SDS011;71372;43.514;1.512;2023-08-20T00:54:39;12.40;;;8.55;;
81908;SDS011;71372;43.514;1.512;2023-08-20T00:57:05;13.05;;;9.85;;
81908;SDS011;71372;43.514;1.512;2023-08-20T00:59:31;12.15;;;9.38;;
81908;SDS011;71372;43.514;1.512;2023-08-20T01:01:57;14.55;;;9.98;;
81908;SDS011;71372;43.514;1.512;2023-08-20T01:04:23;14.85;;;9.35;;
81908;SDS011;71372;43.514;1.512;2023-08-20T01:07:01;12.32;;;9.52;;
81908;SDS011;71372;43.514;1.512;2023-08-20T01:12:13;13.07;;;10.02;;
81908;SDS011;71372;43.514;1.512;2023-08-20T01:14:39;13.75;;;10.00;;
81908;SDS011;71372;43.514;1.512;2023-08-20T01:17:05;13.43;;;9.60;;
81908;SDS011;71372;43.514;1.512;2023-08-20T01:19:31;14.40;;;9.82;;
81908;SDS011;71372;43.514;1.512;2023-08-20T01:22:13;14.27;;;10.70;;
81908;SDS011;71372;43.514;1.512;2023-08-20T01:24:49;12.90;;;10.10;;
81908;SDS011;71372;43.514;1.512;2023-08-20T01:27:42;13.75;;;9.90;;
81908;SDS011;71372;43.514;1.512;2023-08-20T01:30:10;15.20;;;9.48;;
81908;SDS011;71372;43.514;1.512;2023-08-20T01:32:37;12.05;;;9.50;;
81908;SDS011;71372;43.514;1.512;2023-08-20T01:35:08;12.48;;;10.25;;
81908;SDS011;71372;43.514;1.512;2023-08-20T01:37:36;13.45;;;10.32;;
81908;SDS011;71372;43.514;1.512;2023-08-20T01:40:02;11.93;;;10.02;;
81908;SDS011;71372;43.514;1.512;2023-08-20T01:42:29;12.40;;;10.27;;
81908;SDS011;71372;43.514;1.512;2023-08-20T01:44:54;13.52;;;9.75;;
81908;SDS011;71372;43.514;1.512;2023-08-20T01:47:20;13.50;;;10.35;;
81908;SDS011;71372;43.514;1.512;2023-08-20T01:49:46;11.95;;;9.90;;
81908;SDS011;71372;43.514;1.512;2023-08-20T01:52:11;12.98;;;10.02;;
81908;SDS011;71372;43.514;1.512;2023-08-20T01:54:37;17.52;;;10.20;;
81908;SDS011;71372;43.514;1.512;2023-08-20T01:57:03;12.38;;;10.40;;
81908;SDS011;71372;43.514;1.512;2023-08-20T01:59:28;13.93;;;10.10;;
81908;SDS011;71372;43.514;1.512;2023-08-20T02:01:54;12.95;;;9.32;;
81908;SDS011;71372;43.514;1.512;2023-08-20T02:04:20;16.52;;;11.32;;
81908;SDS011;71372;43.514;1.512;2023-08-20T02:06:45;13.07;;;10.57;;
81908;SDS011;71372;43.514;1.512;2023-08-20T02:09:11;12.55;;;11.13;;
81908;SDS011;71372;43.514;1.512;2023-08-20T02:11:37;14.02;;;10.18;;
81908;SDS011;71372;43.514;1.512;2023-08-20T02:14:02;15.98;;;11.80;;
81908;SDS011;71372;43.514;1.512;2023-08-20T02:16:28;13.38;;;11.00;;
81908;SDS011;71372;43.514;1.512;2023-08-20T02:18:54;12.43;;;10.73;;
81908;SDS011;71372;43.514;1.512;2023-08-20T02:21:19;14.38;;;10.63;;
81908;SDS011;71372;43.514;1.512;2023-08-20T02:23:45;13.05;;;10.45;;
81908;SDS011;71372;43.514;1.512;2023-08-20T02:26:13;13.52;;;10.57;;
81908;SDS011;71372;43.514;1.512;2023-08-20T02:28:40;14.07;;;10.35;;
81908;SDS011;71372;43.514;1.512;2023-08-20T02:31:06;14.48;;;10.90;;
81908;SDS011;71372;43.514;1.512;2023-08-20T02:33:31;16.23;;;11.63;;
81908;SDS011;71372;43.514;1.512;2023-08-20T02:36:01;12.52;;;10.25;;
81908;SDS011;71372;43.514;1.512;2023-08-20T02:38:27;15.23;;;11.38;;
81908;SDS011;71372;43.514;1.512;2023-08-20T02:40:52;17.27;;;10.95;;
81908;SDS011;71372;43.514;1.512;2023-08-20T02:43:18;12.75;;;10.60;;
81908;SDS011;71372;43.514;1.512;2023-08-20T02:45:44;12.82;;;11.02;;
81908;SDS011;71372;43.514;1.512;2023-08-20T02:48:10;14.02;;;11.48;;
81908;SDS011;71372;43.514;1.512;2023-08-20T02:50:35;14.05;;;10.43;;
81908;SDS011;71372;43.514;1.512;2023-08-20T02:53:01;16.45;;;10.95;;
81908;SDS011;71372;43.514;1.512;2023-08-20T02:55:27;13.27;;;10.65;;
81908;SDS011;71372;43.514;1.512;2023-08-20T02:57:53;14.55;;;11.50;;
81908;SDS011;71372;43.514;1.512;2023-08-20T03:00:19;12.50;;;11.20;;
81908;SDS011;71372;43.514;1.512;2023-08-20T03:02:45;14.93;;;11.00;;
81908;SDS011;71372;43.514;1.512;2023-08-20T03:05:10;17.25;;;11.23;;
81908;SDS011;71372;43.514;1.512;2023-08-20T03:07:36;15.25;;;11.27;;
81908;SDS011;71372;43.514;1.512;2023-08-20T03:10:02;16.30;;;11.43;;
81908;SDS011;71372;43.514;1.512;2023-08-20T03:12:28;16.70;;;11.80;;
81908;SDS011;71372;43.514;1.512;2023-08-20T03:14:54;16.05;;;12.15;;
81908;SDS011;71372;43.514;1.512;2023-08-20T03:17:20;15.80;;;11.23;;
81908;SDS011;71372;43.514;1.512;2023-08-20T03:19:55;15.57;;;12.68;;
81908;SDS011;71372;43.514;1.512;2023-08-20T03:22:21;15.55;;;11.98;;
81908;SDS011;71372;43.514;1.512;2023-08-20T03:24:47;15.68;;;11.95;;
81908;SDS011;71372;43.514;1.512;2023-08-20T03:27:13;15.93;;;11.93;;
81908;SDS011;71372;43.514;1.512;2023-08-20T03:29:38;13.63;;;11.32;;
81908;SDS011;71372;43.514;1.512;2023-08-20T03:32:04;14.80;;;10.85;;
81908;SDS011;71372;43.514;1.512;2023-08-20T03:34:30;13.77;;;11.10;;
81908;SDS011;71372;43.514;1.512;2023-08-20T03:36:55;13.65;;;10.95;;
81908;SDS011;71372;43.514;1.512;2023-08-20T03:39:21;11.73;;;9.88;;
81908;SDS011;71372;43.514;1.512;2023-08-20T03:41:47;13.45;;;9.98;;
81908;SDS011;71372;43.514;1.512;2023-08-20T03:44:12;12.43;;;10.50;;
81908;SDS011;71372;43.514;1.512;2023-08-20T03:46:38;14.02;;;10.88;;
81908;SDS011;71372;43.514;1.512;2023-08-20T03:49:04;17.73;;;11.27;;
81908;SDS011;71372;43.514;1.512;2023-08-20T03:51:29;13.55;;;10.95;;
81908;SDS011;71372;43.514;1.512;2023-08-20T03:53:55;15.68;;;11.60;;
81908;SDS011;71372;43.514;1.512;2023-08-20T03:56:20;14.15;;;10.55;;
81908;SDS011;71372;43.514;1.512;2023-08-20T03:58:46;15.55;;;12.00;;
81908;SDS011;71372;43.514;1.512;2023-08-20T04:01:12;15.40;;;11.65;;
81908;SDS011;71372;43.514;1.512;2023-08-20T04:03:37;14.18;;;11.45;;
81908;SDS011;71372;43.514;1.512;2023-08-20T04:06:03;15.30;;;11.75;;
81908;SDS011;71372;43.514;1.512;2023-08-20T04:08:29;15.90;;;11.77;;
81908;SDS011;71372;43.514;1.512;2023-08-20T04:10:54;14.75;;;10.90;;
81908;SDS011;71372;43.514;1.512;2023-08-20T04:13:20;15.32;;;11.02;;
81908;SDS011;71372;43.514;1.512;2023-08-20T04:15:46;13.52;;;10.52;;
81908;SDS011;71372;43.514;1.512;2023-08-20T04:18:12;14.98;;;11.35;;
81908;SDS011;71372;43.514;1.512;2023-08-20T04:20:37;17.65;;;11.27;;
81908;SDS011;71372;43.514;1.512;2023-08-20T04:23:03;17.38;;;11.15;;
81908;SDS011;71372;43.514;1.512;2023-08-20T04:25:29;15.73;;;11.20;;
81908;SDS011;71372;43.514;1.512;2023-08-20T04:27:54;16.17;;;11.43;;
81908;SDS011;71372;43.514;1.512;2023-08-20T04:30:20;13.60;;;11.45;;
81908;SDS011;71372;43.514;1.512;2023-08-20T04:32:45;13.55;;;11.68;;
81908;SDS011;71372;43.514;1.512;2023-08-20T04:35:11;14.32;;;11.90;;
81908;SDS011;71372;43.514;1.512;2023-08-20T04:37:37;16.63;;;11.65;;
81908;SDS011;71372;43.514;1.512;2023-08-20T04:40:02;16.05;;;11.35;;
81908;SDS011;71372;43.514;1.512;2023-08-20T04:42:31;15.30;;;12.40;;
81908;SDS011;71372;43.514;1.512;2023-08-20T04:44:57;15.20;;;12.18;;
81908;SDS011;71372;43.514;1.512;2023-08-20T04:47:23;16.67;;;12.23;;
81908;SDS011;71372;43.514;1.512;2023-08-20T04:49:48;14.77;;;12.35;;
81908;SDS011;71372;43.514;1.512;2023-08-20T04:52:14;15.52;;;12.20;;
81908;SDS011;71372;43.514;1.512;2023-08-20T04:54:39;13.95;;;12.30;;
81908;SDS011;71372;43.514;1.512;2023-08-20T04:57:05;15.73;;;13.18;;
81908;SDS011;71372;43.514;1.512;2023-08-20T04:59:31;17.73;;;12.70;;
81908;SDS011;71372;43.514;1.512;2023-08-20T05:01:56;15.75;;;12.38;;
81908;SDS011;71372;43.514;1.512;2023-08-20T05:04:22;14.77;;;13.13;;
81908;SDS011;71372;43.514;1.512;2023-08-20T05:06:48;17.58;;;13.38;;
81908;SDS011;71372;43.514;1.512;2023-08-20T05:09:13;18.23;;;13.32;;
81908;SDS011;71372;43.514;1.512;2023-08-20T05:11:39;17.33;;;12.90;;
81908;SDS011;71372;43.514;1.512;2023-08-20T05:14:05;16.60;;;13.10;;
81908;SDS011;71372;43.514;1.512;2023-08-20T05:16:30;17.45;;;13.15;;
81908;SDS011;71372;43.514;1.512;2023-08-20T05:18:56;17.30;;;13.25;;
81908;SDS011;71372;43.514;1.512;2023-08-20T05:21:22;17.23;;;12.65;;
81908;SDS011;71372;43.514;1.512;2023-08-20T05:23:47;14.48;;;11.07;;
81908;SDS011;71372;43.514;1.512;2023-08-20T05:26:13;21.08;;;12.93;;
81908;SDS011;71372;43.514;1.512;2023-08-20T05:28:38;16.80;;;12.40;;
81908;SDS011;71372;43.514;1.512;2023-08-20T05:31:04;17.02;;;12.43;;
81908;SDS011;71372;43.514;1.512;2023-08-20T05:33:30;15.40;;;12.23;;
81908;SDS011;71372;43.514;1.512;2023-08-20T05:35:55;15.88;;;12.52;;
81908;SDS011;71372;43.514;1.512;2023-08-20T05:38:21;15.07;;;12.70;;
81908;SDS011;71372;43.514;1.512;2023-08-20T05:40:46;15.88;;;12.02;;
81908;SDS011;71372;43.514;1.512;2023-08-20T05:43:12;17.95;;;12.45;;
81908;SDS011;71372;43.514;1.512;2023-08-20T05:45:38;15.00;;;12.30;;
81908;SDS011;71372;43.514;1.512;2023-08-20T05:48:03;15.43;;;12.05;;
81908;SDS011;71372;43.514;1.512;2023-08-20T05:50:29;14.88;;;11.52;;
81908;SDS011;71372;43.514;1.512;2023-08-20T05:52:55;14.90;;;12.70;;
81908;SDS011;71372;43.514;1.512;2023-08-20T05:55:20;14.80;;;12.05;;
81908;SDS011;71372;43.514;1.512;2023-08-20T05:57:46;14.07;;;12.32;;
81908;SDS011;71372;43.514;1.512;2023-08-20T06:00:12;16.02;;;12.70;;
81908;SDS011;71372;43.514;1.512;2023-08-20T06:02:37;15.25;;;11.88;;
81908;SDS011;71372;43.514;1.512;2023-08-20T06:05:03;16.27;;;11.98;;
81908;SDS011;71372;43.514;1.512;2023-08-20T06:07:33;17.27;;;11.43;;
81908;SDS011;71372;43.514;1.512;2023-08-20T06:09:59;15.40;;;11.70;;
81908;SDS011;71372;43.514;1.512;2023-08-20T06:12:24;15.75;;;11.60;;
81908;SDS011;71372;43.514;1.512;2023-08-20T06:14:50;15.13;;;12.32;;
81908;SDS011;71372;43.514;1.512;2023-08-20T06:17:16;14.13;;;12.05;;
81908;SDS011;71372;43.514;1.512;2023-08-20T06:19:41;18.50;;;12.55;;
81908;SDS011;71372;43.514;1.512;2023-08-20T06:22:07;17.83;;;12.02;;
81908;SDS011;71372;43.514;1.512;2023-08-20T06:24:33;16.42;;;11.40;;
81908;SDS011;71372;43.514;1.512;2023-08-20T06:26:58;13.95;;;10.98;;
81908;SDS011;71372;43.514;1.512;2023-08-20T06:29:24;12.13;;;10.82;;
81908;SDS011;71372;43.514;1.512;2023-08-20T06:31:50;17.83;;;11.50;;
81908;SDS011;71372;43.514;1.512;2023-08-20T06:34:16;14.02;;;10.63;;
81908;SDS011;71372;43.514;1.512;2023-08-20T06:36:42;15.73;;;10.80;;
81908;SDS011;71372;43.514;1.512;2023-08-20T06:39:07;13.05;;;11.00;;
81908;SDS011;71372;43.514;1.512;2023-08-20T06:41:33;13.05;;;10.70;;
81908;SDS011;71372;43.514;1.512;2023-08-20T06:43:59;13.60;;;9.95;;
81908;SDS011;71372;43.514;1.512;2023-08-20T06:46:25;16.17;;;10.63;;
81908;SDS011;71372;43.514;1.512;2023-08-20T06:48:50;14.77;;;9.27;;
81908;SDS011;71372;43.514;1.512;2023-08-20T06:51:19;10.38;;;9.20;;
81908;SDS011;71372;43.514;1.512;2023-08-20T06:53:44;10.35;;;9.05;;
81908;SDS011;71372;43.514;1.512;2023-08-20T06:56:10;10.45;;;8.65;;
81908;SDS011;71372;43.514;1.512;2023-08-20T06:58:39;12.40;;;9.02;;
81908;SDS011;71372;43.514;1.512;2023-08-20T07:01:05;11.70;;;8.65;;
81908;SDS011;71372;43.514;1.512;2023-08-20T07:03:42;10.70;;;8.65;;
81908;SDS011;71372;43.514;1.512;2023-08-20T07:06:09;11.07;;;8.30;;
81908;SDS011;71372;43.514;1.512;2023-08-20T07:08:35;11.43;;;6.07;;
81908;SDS011;71372;43.514;1.512;2023-08-20T07:11:01;10.00;;;6.90;;
81908;SDS011;71372;43.514;1.512;2023-08-20T07:13:26;10.75;;;6.93;;
81908;SDS011;71372;43.514;1.512;2023-08-20T07:15:52;8.50;;;6.13;;
81908;SDS011;71372;43.514;1.512;2023-08-20T07:18:18;11.40;;;6.50;;
81908;SDS011;71372;43.514;1.512;2023-08-20T07:20:43;9.10;;;5.95;;
81908;SDS011;71372;43.514;1.512;2023-08-20T07:23:10;10.00;;;5.90;;
81908;SDS011;71372;43.514;1.512;2023-08-20T07:25:39;9.13;;;5.57;;
81908;SDS011;71372;43.514;1.512;2023-08-20T07:28:05;11.00;;;5.90;;
81908;SDS011;71372;43.514;1.512;2023-08-20T07:30:31;8.15;;;5.47;;
81908;SDS011;71372;43.514;1.512;2023-08-20T07:32:57;8.98;;;5.53;;
81908;SDS011;71372;43.514;1.512;2023-08-20T07:35:23;8.93;;;5.90;;
81908;SDS011;71372;43.514;1.512;2023-08-20T07:37:48;9.98;;;5.85;;
81908;SDS011;71372;43.514;1.512;2023-08-20T07:40:14;9.02;;;5.55;;
81908;SDS011;71372;43.514;1.512;2023-08-20T07:42:40;10.25;;;5.32;;
81908;SDS011;71372;43.514;1.512;2023-08-20T07:45:06;10.05;;;5.13;;
81908;SDS011;71372;43.514;1.512;2023-08-20T07:47:32;9.52;;;5.90;;
81908;SDS011;71372;43.514;1.512;2023-08-20T07:49:58;13.48;;;5.63;;
81908;SDS011;71372;43.514;1.512;2023-08-20T07:52:24;10.07;;;5.90;;
81908;SDS011;71372;43.514;1.512;2023-08-20T07:54:49;8.75;;;5.70;;
81908;SDS011;71372;43.514;1.512;2023-08-20T07:57:15;8.93;;;5.85;;
81908;SDS011;71372;43.514;1.512;2023-08-20T07:59:41;11.07;;;5.95;;
81908;SDS011;71372;43.514;1.512;2023-08-20T08:02:06;11.27;;;6.43;;
81908;SDS011;71372;43.514;1.512;2023-08-20T08:04:33;10.52;;;5.90;;
81908;SDS011;71372;43.514;1.512;2023-08-20T08:06:59;8.75;;;6.22;;
81908;SDS011;71372;43.514;1.512;2023-08-20T08:09:28;10.63;;;5.90;;
81908;SDS011;71372;43.514;1.512;2023-08-20T08:11:54;7.68;;;5.80;;
81908;SDS011;71372;43.514;1.512;2023-08-20T08:14:20;12.52;;;5.75;;
81908;SDS011;71372;43.514;1.512;2023-08-20T08:16:46;11.02;;;6.00;;
81908;SDS011;71372;43.514;1.512;2023-08-20T08:19:12;11.45;;;6.10;;
81908;SDS011;71372;43.514;1.512;2023-08-20T08:21:37;8.32;;;5.65;;
81908;SDS011;71372;43.514;1.512;2023-08-20T08:24:03;10.50;;;5.20;;
81908;SDS011;71372;43.514;1.512;2023-08-20T08:26:29;10.95;;;5.72;;
81908;SDS011;71372;43.514;1.512;2023-08-20T08:28:55;9.05;;;5.78;;
81908;SDS011;71372;43.514;1.512;2023-08-20T08:31:21;10.27;;;5.50;;
81908;SDS011;71372;43.514;1.512;2023-08-20T08:33:46;8.07;;;5.47;;
81908;SDS011;71372;43.514;1.512;2023-08-20T08:36:12;10.27;;;5.05;;
81908;SDS011;71372;43.514;1.512;2023-08-20T08:38:38;7.05;;;4.90;;
81908;SDS011;71372;43.514;1.512;2023-08-20T08:41:04;8.68;;;5.20;;
81908;SDS011;71372;43.514;1.512;2023-08-20T08:43:32;14.40;;;5.47;;
81908;SDS011;71372;43.514;1.512;2023-08-20T08:45:57;9.32;;;5.25;;
81908;SDS011;71372;43.514;1.512;2023-08-20T08:48:24;10.98;;;5.00;;
81908;SDS011;71372;43.514;1.512;2023-08-20T08:50:50;7.47;;;5.20;;
81908;SDS011;71372;43.514;1.512;2023-08-20T08:53:16;7.85;;;5.50;;
81908;SDS011;71372;43.514;1.512;2023-08-20T08:55:43;7.22;;;5.57;;
81908;SDS011;71372;43.514;1.512;2023-08-20T08:58:08;9.75;;;5.53;;
81908;SDS011;71372;43.514;1.512;2023-08-20T09:00:34;8.02;;;5.00;;
81908;SDS011;71372;43.514;1.512;2023-08-20T09:03:00;11.10;;;4.88;;
81908;SDS011;71372;43.514;1.512;2023-08-20T09:05:25;12.05;;;5.22;;
81908;SDS011;71372;43.514;1.512;2023-08-20T09:07:57;10.65;;;5.20;;
81908;SDS011;71372;43.514;1.512;2023-08-20T09:10:26;9.80;;;5.20;;
81908;SDS011;71372;43.514;1.512;2023-08-20T09:12:54;12.05;;;5.50;;
81908;SDS011;71372;43.514;1.512;2023-08-20T09:15:20;7.85;;;5.35;;
81908;SDS011;71372;43.514;1.512;2023-08-20T09:17:46;16.17;;;5.65;;
81908;SDS011;71372;43.514;1.512;2023-08-20T09:20:11;10.60;;;5.22;;
81908;SDS011;71372;43.514;1.512;2023-08-20T09:22:37;13.90;;;5.28;;
81908;SDS011;71372;43.514;1.512;2023-08-20T09:25:03;10.20;;;5.43;;
81908;SDS011;71372;43.514;1.512;2023-08-20T09:27:28;11.02;;;5.38;;
81908;SDS011;71372;43.514;1.512;2023-08-20T09:29:55;10.57;;;5.28;;
81908;SDS011;71372;43.514;1.512;2023-08-20T09:32:21;10.63;;;4.97;;
81908;SDS011;71372;43.514;1.512;2023-08-20T09:34:51;9.20;;;4.78;;
81908;SDS011;71372;43.514;1.512;2023-08-20T09:37:18;11.93;;;4.93;;
81908;SDS011;71372;43.514;1.512;2023-08-20T09:39:43;11.48;;;5.07;;
81908;SDS011;71372;43.514;1.512;2023-08-20T09:42:09;10.25;;;4.75;;
81908;SDS011;71372;43.514;1.512;2023-08-20T09:44:36;11.55;;;4.50;;
81908;SDS011;71372;43.514;1.512;2023-08-20T09:47:03;10.15;;;4.90;;
81908;SDS011;71372;43.514;1.512;2023-08-20T09:49:30;8.18;;;4.70;;
81908;SDS011;71372;43.514;1.512;2023-08-20T09:51:58;10.27;;;4.85;;
81908;SDS011;71372;43.514;1.512;2023-08-20T09:54:28;9.32;;;5.07;;
81908;SDS011;71372;43.514;1.512;2023-08-20T09:56:58;10.98;;;4.38;;
81908;SDS011;71372;43.514;1.512;2023-08-20T09:59:24;8.13;;;4.70;;
81908;SDS011;71372;43.514;1.512;2023-08-20T10:01:50;9.52;;;4.97;;
81908;SDS011;71372;43.514;1.512;2023-08-20T10:04:16;9.75;;;4.90;;
81908;SDS011;71372;43.514;1.512;2023-08-20T10:06:42;9.00;;;4.97;;
81908;SDS011;71372;43.514;1.512;2023-08-20T10:09:08;8.18;;;4.90;;
81908;SDS011;71372;43.514;1.512;2023-08-20T10:11:34;7.65;;;4.60;;
81908;SDS011;71372;43.514;1.512;2023-08-20T10:14:00;6.50;;;4.82;;
81908;SDS011;71372;43.514;1.512;2023-08-20T10:16:27;10.45;;;4.65;;
81908;SDS011;71372;43.514;1.512;2023-08-20T10:18:52;8.93;;;4.45;;
81908;SDS011;71372;43.514;1.512;2023-08-20T10:21:23;8.57;;;4.78;;
81908;SDS011;71372;43.514;1.512;2023-08-20T10:23:50;12.85;;;4.45;;
81908;SDS011;71372;43.514;1.512;2023-08-20T10:26:15;14.20;;;4.63;;
81908;SDS011;71372;43.514;1.512;2023-08-20T10:28:42;7.65;;;4.38;;
81908;SDS011;71372;43.514;1.512;2023-08-20T10:31:08;8.48;;;4.80;;
81908;SDS011;71372;43.514;1.512;2023-08-20T10:34:08;9.93;;;4.68;;
81908;SDS011;71372;43.514;1.512;2023-08-20T10:36:26;8.65;;;4.57;;
81908;SDS011;71372;43.514;1.512;2023-08-20T10:38:53;8.70;;;4.80;;
81908;SDS011;71372;43.514;1.512;2023-08-20T10:41:27;10.52;;;4.70;;
81908;SDS011;71372;43.514;1.512;2023-08-20T10:43:52;8.77;;;4.70;;
81908;SDS011;71372;43.514;1.512;2023-08-20T10:46:19;11.50;;;4.30;;
81908;SDS011;71372;43.514;1.512;2023-08-20T10:48:57;7.32;;;4.25;;
81908;SDS011;71372;43.514;1.512;2023-08-20T10:51:32;10.95;;;4.78;;
81908;SDS011;71372;43.514;1.512;2023-08-20T10:59:08;6.97;;;4.43;;
81908;SDS011;71372;43.514;1.512;2023-08-20T11:01:33;8.32;;;4.50;;
81908;SDS011;71372;43.514;1.512;2023-08-20T11:03:59;9.75;;;4.75;;
81908;SDS011;71372;43.514;1.512;2023-08-20T11:06:33;8.82;;;4.72;;
81908;SDS011;71372;43.514;1.512;2023-08-20T11:08:59;6.53;;;4.95;;
81908;SDS011;71372;43.514;1.512;2023-08-20T11:11:25;6.88;;;4.80;;
81908;SDS011;71372;43.514;1.512;2023-08-20T11:13:50;10.43;;;4.53;;
81908;SDS011;71372;43.514;1.512;2023-08-20T11:16:16;9.82;;;5.03;;
81908;SDS011;71372;43.514;1.512;2023-08-20T11:18:42;9.77;;;4.75;;
81908;SDS011;71372;43.514;1.512;2023-08-20T11:21:08;11.65;;;4.93;;
81908;SDS011;71372;43.514;1.512;2023-08-20T11:23:33;11.93;;;4.93;;
81908;SDS011;71372;43.514;1.512;2023-08-20T11:26:00;9.90;;;4.85;;
81908;SDS011;71372;43.514;1.512;2023-08-20T11:28:26;11.15;;;4.72;;
81908;SDS011;71372;43.514;1.512;2023-08-20T11:30:52;14.70;;;5.72;;
81908;SDS011;71372;43.514;1.512;2023-08-20T11:33:18;8.65;;;4.80;;
81908;SDS011;71372;43.514;1.512;2023-08-20T11:35:44;10.38;;;4.70;;
81908;SDS011;71372;43.514;1.512;2023-08-20T11:38:10;11.55;;;4.60;;
81908;SDS011;71372;43.514;1.512;2023-08-20T11:40:36;9.00;;;4.75;;
81908;SDS011;71372;43.514;1.512;2023-08-20T11:43:02;8.32;;;4.57;;
81908;SDS011;71372;43.514;1.512;2023-08-20T11:45:27;10.95;;;5.07;;
81908;SDS011;71372;43.514;1.512;2023-08-20T11:47:56;10.23;;;4.60;;
81908;SDS011;71372;43.514;1.512;2023-08-20T11:50:25;8.65;;;4.45;;
81908;SDS011;71372;43.514;1.512;2023-08-20T11:52:52;8.32;;;4.80;;
81908;SDS011;71372;43.514;1.512;2023-08-20T11:55:24;12.52;;;4.72;;
81908;SDS011;71372;43.514;1.512;2023-08-20T11:57:52;10.07;;;4.70;;
81908;SDS011;71372;43.514;1.512;2023-08-20T12:00:25;10.30;;;4.80;;
81908;SDS011;71372;43.514;1.512;2023-08-20T12:02:52;10.07;;;4.93;;
81908;SDS011;71372;43.514;1.512;2023-08-20T12:05:18;8.50;;;4.55;;
81908;SDS011;71372;43.514;1.512;2023-08-20T12:07:54;9.88;;;4.63;;
81908;SDS011;71372;43.514;1.512;2023-08-20T12:10:20;8.93;;;4.05;;
81908;SDS011;71372;43.514;1.512;2023-08-20T12:12:49;8.68;;;4.43;;
81908;SDS011;71372;43.514;1.512;2023-08-20T12:15:14;7.50;;;4.90;;
81908;SDS011;71372;43.514;1.512;2023-08-20T12:17:40;8.05;;;4.50;;
81908;SDS011;71372;43.514;1.512;2023-08-20T12:20:06;11.13;;;4.63;;
81908;SDS011;71372;43.514;1.512;2023-08-20T12:22:38;10.77;;;4.70;;
81908;SDS011;71372;43.514;1.512;2023-08-20T12:25:05;7.95;;;5.05;;
81908;SDS011;71372;43.514;1.512;2023-08-20T12:27:32;8.45;;;4.90;;
81908;SDS011;71372;43.514;1.512;2023-08-20T12:29:57;10.00;;;4.35;;
81908;SDS011;71372;43.514;1.512;2023-08-20T12:32:23;8.05;;;4.78;;
81908;SDS011;71372;43.514;1.512;2023-08-20T12:34:48;13.07;;;4.97;;
81908;SDS011;71372;43.514;1.512;2023-08-20T12:37:14;7.78;;;4.40;;
81908;SDS011;71372;43.514;1.512;2023-08-20T12:39:40;8.13;;;4.63;;
81908;SDS011;71372;43.514;1.512;2023-08-20T12:42:05;9.05;;;4.45;;
81908;SDS011;71372;43.514;1.512;2023-08-20T12:44:31;10.30;;;4.32;;
81908;SDS011;71372;43.514;1.512;2023-08-20T12:46:57;12.43;;;4.50;;
81908;SDS011;71372;43.514;1.512;2023-08-20T12:49:22;6.80;;;4.70;;
81908;SDS011;71372;43.514;1.512;2023-08-20T12:51:48;6.65;;;4.30;;
81908;SDS011;71372;43.514;1.512;2023-08-20T12:54:14;8.55;;;4.57;;
81908;SDS011;71372;43.514;1.512;2023-08-20T12:56:39;8.20;;;4.50;;
81908;SDS011;71372;43.514;1.512;2023-08-20T12:59:05;7.95;;;4.57;;
81908;SDS011;71372;43.514;1.512;2023-08-20T13:01:30;9.70;;;4.43;;
81908;SDS011;71372;43.514;1.512;2023-08-20T13:03:56;9.13;;;4.50;;
81908;SDS011;71372;43.514;1.512;2023-08-20T13:06:22;10.77;;;4.30;;
81908;SDS011;71372;43.514;1.512;2023-08-20T13:08:48;9.88;;;4.40;;
81908;SDS011;71372;43.514;1.512;2023-08-20T13:11:13;8.40;;;4.47;;
81908;SDS011;71372;43.514;1.512;2023-08-20T13:13:42;9.40;;;4.85;;
81908;SDS011;71372;43.514;1.512;2023-08-20T13:16:07;8.95;;;4.78;;
81908;SDS011;71372;43.514;1.512;2023-08-20T13:18:34;10.82;;;4.50;;
81908;SDS011;71372;43.514;1.512;2023-08-20T13:20:59;10.32;;;4.60;;
81908;SDS011;71372;43.514;1.512;2023-08-20T13:23:25;8.35;;;4.15;;
81908;SDS011;71372;43.514;1.512;2023-08-20T13:25:51;11.27;;;4.53;;
81908;SDS011;71372;43.514;1.512;2023-08-20T13:28:16;10.52;;;4.75;;
81908;SDS011;71372;43.514;1.512;2023-08-20T13:30:43;12.45;;;4.82;;
81908;SDS011;71372;43.514;1.512;2023-08-20T13:33:08;6.93;;;4.13;;
81908;SDS011;71372;43.514;1.512;2023-08-20T13:35:34;7.65;;;4.20;;
81908;SDS011;71372;43.514;1.512;2023-08-20T13:38:00;8.95;;;4.28;;
81908;SDS011;71372;43.514;1.512;2023-08-20T13:40:26;9.15;;;4.65;;
81908;SDS011;71372;43.514;1.512;2023-08-20T13:42:51;9.80;;;4.28;;
81908;SDS011;71372;43.514;1.512;2023-08-20T13:45:17;10.57;;;4.43;;
81908;SDS011;71372;43.514;1.512;2023-08-20T13:47:42;7.45;;;4.22;;
81908;SDS011;71372;43.514;1.512;2023-08-20T13:50:10;10.35;;;4.55;;
81908;SDS011;71372;43.514;1.512;2023-08-20T13:52:35;10.75;;;4.53;;
81908;SDS011;71372;43.514;1.512;2023-08-20T13:55:01;9.00;;;4.18;;
81908;SDS011;71372;43.514;1.512;2023-08-20T13:57:26;11.20;;;4.05;;
81908;SDS011;71372;43.514;1.512;2023-08-20T13:59:52;9.88;;;4.22;;
81908;SDS011;71372;43.514;1.512;2023-08-20T14:02:18;8.35;;;4.43;;
81908;SDS011;71372;43.514;1.512;2023-08-20T14:04:43;9.73;;;4.90;;
81908;SDS011;71372;43.514;1.512;2023-08-20T14:07:09;7.57;;;4.22;;
81908;SDS011;71372;43.514;1.512;2023-08-20T14:09:35;8.27;;;4.40;;
81908;SDS011;71372;43.514;1.512;2023-08-20T14:12:01;7.22;;;4.40;;
81908;SDS011;71372;43.514;1.512;2023-08-20T14:14:27;9.00;;;4.28;;
81908;SDS011;71372;43.514;1.512;2023-08-20T14:16:52;11.90;;;4.78;;
81908;SDS011;71372;43.514;1.512;2023-08-20T14:19:18;9.40;;;4.60;;
81908;SDS011;71372;43.514;1.512;2023-08-20T14:21:44;8.77;;;4.82;;
81908;SDS011;71372;43.514;1.512;2023-08-20T14:24:09;9.48;;;4.10;;
81908;SDS011;71372;43.514;1.512;2023-08-20T14:26:35;9.07;;;4.43;;
81908;SDS011;71372;43.514;1.512;2023-08-20T14:29:01;7.47;;;4.07;;
81908;SDS011;71372;43.514;1.512;2023-08-20T14:31:26;8.38;;;4.43;;
81908;SDS011;71372;43.514;1.512;2023-08-20T14:33:55;7.78;;;4.60;;
81908;SDS011;71372;43.514;1.512;2023-08-20T14:36:20;8.82;;;4.65;;